createdAt,value
2023-08-08T00:02:10.758Z,19.84
2023-08-08T00:04:37.340Z,19.83
2023-08-08T00:07:03.849Z,19.76
2023-08-08T00:09:30.430Z,19.73
2023-08-08T00:11:57.216Z,19.73
2023-08-08T00:14:24.038Z,19.61
2023-08-08T00:16:50.563Z,19.49
2023-08-08T00:19:17.190Z,19.42
2023-08-08T00:21:43.721Z,19.40
2023-08-08T00:24:10.214Z,19.42
2023-08-08T00:26:36.693Z,19.46
2023-08-08T00:29:03.172Z,19.52
2023-08-08T00:31:29.781Z,19.57
2023-08-08T00:33:56.544Z,19.59
2023-08-08T00:36:23.188Z,19.61
2023-08-08T00:38:49.730Z,19.59
2023-08-08T00:41:16.348Z,19.57
2023-08-08T00:43:42.853Z,19.60
2023-08-08T00:46:09.419Z,19.66
2023-08-08T00:48:35.944Z,19.71
2023-08-08T00:51:02.460Z,19.76
2023-08-08T00:53:28.942Z,19.82
2023-08-08T00:55:55.442Z,19.78
2023-08-08T00:58:21.987Z,19.79
2023-08-08T01:00:48.557Z,19.80
2023-08-08T01:03:17.720Z,19.79
2023-08-08T01:05:44.324Z,19.83
2023-08-08T01:08:10.889Z,19.79
2023-08-08T01:10:37.531Z,19.79
2023-08-08T01:13:04.091Z,19.78
2023-08-08T01:15:30.618Z,19.79
2023-08-08T01:17:57.240Z,19.73
2023-08-08T01:20:23.787Z,19.68
2023-08-08T01:22:50.343Z,19.66
2023-08-08T01:25:25.821Z,19.61
2023-08-08T01:27:52.363Z,19.60
2023-08-08T01:30:18.912Z,19.59
2023-08-08T01:32:45.470Z,19.58
2023-08-08T01:35:12.000Z,19.55
2023-08-08T01:37:38.520Z,19.53
2023-08-08T01:40:05.104Z,19.57
2023-08-08T01:42:31.657Z,19.54
2023-08-08T01:47:48.430Z,19.48
2023-08-08T01:50:15.005Z,19.42
2023-08-08T01:52:41.509Z,19.40
2023-08-08T01:55:08.116Z,19.40
2023-08-08T02:00:14.949Z,19.46
2023-08-08T02:02:41.772Z,19.41
2023-08-08T02:05:08.425Z,19.36
2023-08-08T02:07:34.963Z,19.34
2023-08-08T02:10:01.577Z,19.35
2023-08-08T02:12:28.123Z,19.39
2023-08-08T02:14:54.634Z,19.38
2023-08-08T02:17:21.184Z,19.39
2023-08-08T02:22:38.207Z,19.33
2023-08-08T02:25:04.756Z,19.33
2023-08-08T02:27:31.399Z,19.28
2023-08-08T02:29:57.932Z,19.25
2023-08-08T02:32:24.461Z,19.19
2023-08-08T02:34:50.998Z,19.18
2023-08-08T02:37:17.471Z,19.14
2023-08-08T02:39:43.978Z,19.11
2023-08-08T02:42:10.451Z,19.10
2023-08-08T02:44:37.031Z,19.14
2023-08-08T02:47:03.589Z,19.12
2023-08-08T02:49:30.142Z,19.11
2023-08-08T02:51:57.023Z,19.15
2023-08-08T02:54:23.968Z,19.15
2023-08-08T02:56:50.512Z,19.10
2023-08-08T02:59:17.161Z,19.11
2023-08-08T03:01:43.742Z,19.10
2023-08-08T03:04:10.269Z,19.16
2023-08-08T03:06:36.794Z,19.16
2023-08-08T03:09:05.664Z,19.19
2023-08-08T03:11:32.226Z,19.21
2023-08-08T03:13:58.742Z,19.22
2023-08-08T03:16:25.293Z,19.23
2023-08-08T03:18:51.898Z,19.18
2023-08-08T03:21:18.578Z,19.18
2023-08-08T03:23:45.184Z,19.14
2023-08-08T03:26:11.750Z,19.06
2023-08-08T03:28:38.459Z,19.01
2023-08-08T03:31:04.971Z,19.02
2023-08-08T03:33:31.505Z,19.06
2023-08-08T03:35:58.159Z,19.06
2023-08-08T03:38:24.620Z,19.09
2023-08-08T03:40:51.129Z,19.11
2023-08-08T03:43:17.778Z,19.10
2023-08-08T03:48:35.206Z,19.07
2023-08-08T03:51:01.957Z,19.09
2023-08-08T03:53:29.893Z,19.09
2023-08-08T03:55:56.461Z,19.10
2023-08-08T03:58:35.431Z,19.04
2023-08-08T04:01:19.068Z,19.02
2023-08-08T04:03:45.658Z,18.96
2023-08-08T04:06:12.210Z,18.97
2023-08-08T04:08:38.744Z,18.96
2023-08-08T04:11:05.371Z,18.95
2023-08-08T04:13:31.901Z,18.95
2023-08-08T04:15:58.377Z,18.91
2023-08-08T04:18:34.505Z,18.88
2023-08-08T04:21:02.337Z,18.90
2023-08-08T04:23:28.924Z,18.90
2023-08-08T04:25:55.432Z,18.89
2023-08-08T04:28:21.995Z,18.89
2023-08-08T04:30:48.530Z,18.91
2023-08-08T04:33:15.152Z,18.89
2023-08-08T04:35:41.968Z,18.90
2023-08-08T04:38:11.628Z,18.90
2023-08-08T04:40:39.405Z,18.92
2023-08-08T04:43:06.264Z,18.93
2023-08-08T04:45:32.865Z,18.96
2023-08-08T04:47:59.448Z,18.96
2023-08-08T04:50:26.025Z,18.95
2023-08-08T04:52:52.555Z,18.97
2023-08-08T04:55:19.124Z,18.99
2023-08-08T04:57:45.689Z,19.00
2023-08-08T05:00:12.275Z,19.00
2023-08-08T05:02:38.839Z,19.00
2023-08-08T05:05:05.445Z,19.01
2023-08-08T05:07:31.982Z,19.00
2023-08-08T05:09:58.513Z,19.01
2023-08-08T05:12:26.227Z,19.04
2023-08-08T05:14:52.828Z,19.06
2023-08-08T05:17:19.394Z,19.08
2023-08-08T05:19:46.325Z,19.10
2023-08-08T05:22:13.866Z,19.09
2023-08-08T05:24:40.426Z,19.05
2023-08-08T05:27:07.047Z,19.06
2023-08-08T05:29:33.571Z,19.05
2023-08-08T05:32:01.161Z,19.07
2023-08-08T05:34:27.987Z,19.10
2023-08-08T05:37:10.258Z,19.11
2023-08-08T05:39:43.159Z,19.13
2023-08-08T05:42:09.716Z,19.14
2023-08-08T05:44:36.305Z,19.15
2023-08-08T05:47:02.874Z,19.18
2023-08-08T05:49:29.403Z,19.18
2023-08-08T05:52:11.016Z,19.18
2023-08-08T05:54:38.151Z,19.17
2023-08-08T05:57:04.693Z,19.17
2023-08-08T05:59:31.336Z,19.17
2023-08-08T06:01:57.910Z,19.19
2023-08-08T06:04:24.549Z,19.22
2023-08-08T06:06:51.070Z,19.25
2023-08-08T06:09:17.663Z,19.12
2023-08-08T06:11:46.813Z,19.16
2023-08-08T06:14:13.414Z,19.20
2023-08-08T06:16:40.079Z,19.25
2023-08-08T06:21:47.053Z,19.32
2023-08-08T06:24:13.650Z,19.33
2023-08-08T06:26:40.330Z,19.36
2023-08-08T06:29:06.886Z,19.38
2023-08-08T06:31:33.460Z,19.36
2023-08-08T06:33:59.964Z,19.35
2023-08-08T06:36:26.635Z,19.36
2023-08-08T06:38:53.223Z,19.39
2023-08-08T06:41:19.779Z,19.43
2023-08-08T06:43:46.301Z,19.48
2023-08-08T06:46:15.454Z,19.52
2023-08-08T06:51:22.321Z,19.59
2023-08-08T06:53:48.780Z,19.60
2023-08-08T06:56:15.285Z,19.62
2023-08-08T06:58:44.694Z,19.60
2023-08-08T07:01:11.227Z,19.60
2023-08-08T07:03:37.850Z,19.59
2023-08-08T07:06:04.400Z,19.61
2023-08-08T07:11:15.833Z,19.65
2023-08-08T07:13:42.531Z,19.68
2023-08-08T07:16:09.179Z,19.68
2023-08-08T07:18:35.708Z,19.71
2023-08-08T07:21:02.200Z,19.72
2023-08-08T07:23:28.747Z,19.71
2023-08-08T07:25:55.198Z,19.72
2023-08-08T07:28:21.834Z,19.74
2023-08-08T07:30:48.338Z,19.74
2023-08-08T07:33:14.959Z,19.73
2023-08-08T07:35:41.532Z,19.74
2023-08-08T07:38:10.228Z,19.74
2023-08-08T07:40:36.872Z,19.73
2023-08-08T07:43:03.420Z,19.69
2023-08-08T07:45:29.983Z,19.63
2023-08-08T07:47:58.551Z,19.62
2023-08-08T07:50:25.192Z,19.58
2023-08-08T07:52:51.730Z,19.58
2023-08-08T07:55:18.370Z,19.58
2023-08-08T07:57:44.887Z,19.57
2023-08-08T08:00:11.380Z,19.56
2023-08-08T08:02:37.957Z,19.57
2023-08-08T08:05:04.500Z,19.57
2023-08-08T08:07:33.705Z,19.59
2023-08-08T08:10:00.241Z,19.62
2023-08-08T08:12:32.583Z,19.59
2023-08-08T08:14:59.085Z,19.63
2023-08-08T08:17:25.605Z,19.63
2023-08-08T08:19:52.115Z,19.69
2023-08-08T08:22:18.654Z,19.68
2023-08-08T08:24:45.122Z,19.71
2023-08-08T08:27:12.932Z,19.72
2023-08-08T08:29:39.383Z,19.75
2023-08-08T08:32:08.708Z,19.79
2023-08-08T08:34:35.269Z,19.80
2023-08-08T08:37:01.798Z,19.83
2023-08-08T08:39:30.393Z,19.81
2023-08-08T08:41:56.896Z,19.84
2023-08-08T08:44:23.318Z,19.87
2023-08-08T08:46:58.882Z,19.93
2023-08-08T08:49:25.361Z,19.95
2023-08-08T08:51:51.849Z,19.96
2023-08-08T08:54:19.641Z,20.02
2023-08-08T08:56:46.393Z,20.03
2023-08-08T08:59:12.836Z,20.02
2023-08-08T09:01:39.364Z,20.05
2023-08-08T09:04:07.092Z,20.10
2023-08-08T09:06:33.587Z,20.14
2023-08-08T09:09:07.235Z,20.16
2023-08-08T09:11:42.585Z,20.14
2023-08-08T09:14:09.120Z,20.09
2023-08-08T09:16:35.671Z,20.11
2023-08-08T09:19:02.299Z,20.11
2023-08-08T09:21:37.657Z,20.14
2023-08-08T09:24:04.175Z,20.18
2023-08-08T09:26:30.737Z,20.25
2023-08-08T09:28:57.287Z,20.31
2023-08-08T09:31:23.828Z,20.36
2023-08-08T09:33:54.905Z,20.44
2023-08-08T09:36:24.109Z,20.53
2023-08-08T09:38:58.287Z,20.58
2023-08-08T09:41:26.081Z,20.58
2023-08-08T09:43:52.599Z,20.55
2023-08-08T09:46:19.162Z,20.57
2023-08-08T09:48:45.702Z,20.63
2023-08-08T09:51:12.307Z,20.65
2023-08-08T09:53:40.358Z,20.67
2023-08-08T09:56:06.887Z,20.66
2023-08-08T09:58:33.410Z,20.65
2023-08-08T10:00:59.932Z,20.63
2023-08-08T10:03:26.588Z,20.57
2023-08-08T10:05:54.599Z,20.54
2023-08-08T10:08:21.089Z,20.50
2023-08-08T10:10:58.811Z,20.44
2023-08-08T10:13:25.323Z,20.41
2023-08-08T10:15:51.812Z,20.35
2023-08-08T10:18:18.358Z,20.29
2023-08-08T10:20:44.955Z,20.27
2023-08-08T10:23:11.470Z,20.25
2023-08-08T10:25:38.004Z,20.19
2023-08-08T10:28:15.599Z,20.22
2023-08-08T10:30:51.061Z,20.26
2023-08-08T10:33:17.623Z,20.26
2023-08-08T10:35:44.146Z,20.36
2023-08-08T10:38:10.661Z,20.46
2023-08-08T10:40:37.221Z,20.50
2023-08-08T10:43:03.684Z,20.54
2023-08-08T10:45:30.181Z,20.62
2023-08-08T10:47:58.665Z,20.67
2023-08-08T10:50:25.193Z,20.67
2023-08-08T10:52:51.695Z,20.65
2023-08-08T10:55:18.159Z,20.71
2023-08-08T10:57:44.690Z,20.79
2023-08-08T11:02:51.688Z,20.86
2023-08-08T11:05:18.243Z,20.80
2023-08-08T11:07:44.826Z,20.71
2023-08-08T11:10:11.392Z,20.75
2023-08-08T11:12:37.884Z,20.82
2023-08-08T11:15:10.549Z,20.89
2023-08-08T11:17:37.131Z,20.93
2023-08-08T11:20:03.682Z,20.93
2023-08-08T11:22:30.242Z,20.98
2023-08-08T11:24:57.969Z,20.96
2023-08-08T11:29:54.498Z,20.97
2023-08-08T11:32:20.992Z,20.98
2023-08-08T11:34:47.521Z,20.92
2023-08-08T11:37:14.043Z,20.96
2023-08-08T11:39:40.566Z,20.91
2023-08-08T11:42:09.565Z,20.94
2023-08-08T11:44:36.000Z,20.97
2023-08-08T11:47:03.316Z,21.02
2023-08-08T11:49:30.864Z,21.09
2023-08-08T11:51:57.398Z,21.15
2023-08-08T11:54:23.902Z,21.19
2023-08-08T11:56:50.420Z,21.24
2023-08-08T11:59:16.958Z,21.27
2023-08-08T12:01:43.695Z,21.32
2023-08-08T12:04:20.450Z,21.34
2023-08-08T12:06:47.043Z,21.40
2023-08-08T12:09:13.600Z,21.41
2023-08-08T12:11:40.082Z,21.50
2023-08-08T12:14:06.540Z,21.51
2023-08-08T12:16:34.030Z,21.55
2023-08-08T12:19:01.040Z,21.58
2023-08-08T12:21:27.705Z,21.62
2023-08-08T12:23:54.309Z,21.71
2023-08-08T12:26:22.102Z,21.73
2023-08-08T12:28:48.560Z,21.84
2023-08-08T12:31:15.148Z,21.89
2023-08-08T12:33:41.673Z,21.91
2023-08-08T12:36:08.192Z,21.96
2023-08-08T12:38:34.698Z,22.05
2023-08-08T12:41:01.208Z,22.11
2023-08-08T12:43:27.676Z,22.13
2023-08-08T12:45:54.230Z,22.12
2023-08-08T12:48:21.423Z,22.14
2023-08-08T12:50:50.473Z,22.17
2023-08-08T12:53:17.043Z,22.23
2023-08-08T12:55:43.555Z,22.33
2023-08-08T12:58:10.083Z,22.32
2023-08-08T13:00:36.635Z,22.33
2023-08-08T13:03:10.671Z,22.35
2023-08-08T13:05:37.428Z,22.39
2023-08-08T13:08:04.057Z,22.41
2023-08-08T13:10:35.233Z,22.43
2023-08-08T13:13:01.770Z,22.45
2023-08-08T13:15:28.333Z,22.50
2023-08-08T13:17:54.874Z,22.52
2023-08-08T13:23:02.696Z,22.49
2023-08-08T13:25:29.303Z,22.50
2023-08-08T13:27:55.824Z,22.51
2023-08-08T13:30:22.345Z,22.54
2023-08-08T13:32:48.927Z,22.57
2023-08-08T13:35:15.423Z,22.58
2023-08-08T13:37:41.931Z,22.59
2023-08-08T13:40:08.385Z,22.64
2023-08-08T13:42:34.867Z,22.65
2023-08-08T13:45:01.380Z,22.68
2023-08-08T13:47:27.959Z,22.72
2023-08-08T13:49:59.498Z,22.81
2023-08-08T13:52:26.257Z,22.88
2023-08-08T13:54:52.767Z,22.89
2023-08-08T13:57:19.283Z,22.86
2023-08-08T14:02:26.218Z,22.88
2023-08-08T14:04:52.786Z,22.97
2023-08-08T14:07:19.303Z,23.01
2023-08-08T14:09:45.824Z,23.08
2023-08-08T14:12:12.292Z,23.19
2023-08-08T14:14:38.802Z,23.26
2023-08-08T14:17:06.306Z,23.30
2023-08-08T14:19:33.037Z,23.31
2023-08-08T14:22:00.856Z,23.35
2023-08-08T14:24:28.847Z,23.39
2023-08-08T14:26:55.409Z,23.42
2023-08-08T14:29:21.904Z,23.48
2023-08-08T14:31:58.836Z,23.47
2023-08-08T14:34:26.795Z,23.50
2023-08-08T14:36:53.298Z,23.58
2023-08-08T14:39:19.815Z,23.63
2023-08-08T14:41:53.997Z,23.65
2023-08-08T14:44:24.286Z,23.71
2023-08-08T14:46:50.782Z,23.70
2023-08-08T14:49:17.381Z,23.69
2023-08-08T14:51:43.875Z,23.72
2023-08-08T14:54:10.330Z,23.75
2023-08-08T14:56:36.930Z,23.79
2023-08-08T14:59:06.206Z,23.85
2023-08-08T15:01:38.700Z,23.91
2023-08-08T15:06:56.485Z,23.80
2023-08-08T15:09:22.993Z,23.77
2023-08-08T15:11:49.522Z,23.75
2023-08-08T15:14:16.063Z,23.68
2023-08-08T15:16:42.593Z,23.72
2023-08-08T15:19:09.029Z,23.74
2023-08-08T15:21:35.545Z,23.76
2023-08-08T15:24:02.013Z,23.81
2023-08-08T15:26:28.423Z,23.84
2023-08-08T15:28:56.463Z,23.87
2023-08-08T15:34:03.527Z,23.93
2023-08-08T15:36:30.007Z,23.98
2023-08-08T15:38:59.228Z,24.07
2023-08-08T15:41:25.660Z,24.09
2023-08-08T15:43:52.086Z,24.13
2023-08-08T15:46:18.595Z,24.17
2023-08-08T15:48:45.041Z,24.21
2023-08-08T15:51:11.518Z,24.29
2023-08-08T15:53:38.022Z,24.33
2023-08-08T15:56:11.834Z,24.40
2023-08-08T15:58:38.400Z,24.43
2023-08-08T16:01:14.166Z,24.50
2023-08-08T16:03:40.793Z,24.70
2023-08-08T16:06:08.149Z,25.11
2023-08-08T16:08:34.689Z,25.35
2023-08-08T16:13:51.168Z,25.78
2023-08-08T16:16:17.675Z,25.97
2023-08-08T16:18:44.215Z,26.30
2023-08-08T16:21:10.672Z,26.60
2023-08-08T16:23:37.268Z,26.94
2023-08-08T16:26:03.786Z,27.00
2023-08-08T16:28:30.417Z,27.17
2023-08-08T16:30:56.969Z,27.31
2023-08-08T16:33:23.485Z,27.42
2023-08-08T16:35:49.998Z,27.50
2023-08-08T16:38:16.470Z,27.46
2023-08-08T16:40:43.015Z,27.23
2023-08-08T16:43:09.420Z,27.10
2023-08-08T16:45:35.848Z,27.03
2023-08-08T16:48:02.294Z,26.88
2023-08-08T16:50:32.104Z,26.77
2023-08-08T16:55:42.500Z,26.42
2023-08-08T16:58:09.042Z,26.33
2023-08-08T17:00:35.716Z,26.22
2023-08-08T17:03:02.222Z,26.15
2023-08-08T17:05:28.764Z,26.06
2023-08-08T17:07:57.713Z,26.12
2023-08-08T17:10:24.295Z,26.19
2023-08-08T17:12:50.801Z,26.14
2023-08-08T17:15:19.124Z,26.16
2023-08-08T17:17:45.650Z,26.14
2023-08-08T17:20:12.266Z,26.13
2023-08-08T17:22:38.796Z,26.12
2023-08-08T17:25:05.360Z,26.08
2023-08-08T17:27:31.868Z,25.99
2023-08-08T17:29:58.387Z,25.95
2023-08-08T17:32:25.042Z,25.93
2023-08-08T17:34:57.489Z,25.98
2023-08-08T17:37:24.033Z,26.03
2023-08-08T17:39:50.601Z,26.01
2023-08-08T17:42:17.103Z,25.95
2023-08-08T17:44:43.562Z,25.88
2023-08-08T17:47:10.035Z,25.80
2023-08-08T17:49:36.507Z,25.77
2023-08-08T17:52:03.463Z,25.68
2023-08-08T17:54:30.155Z,25.56
2023-08-08T17:56:56.590Z,25.45
2023-08-08T17:59:26.443Z,25.44
2023-08-08T18:01:54.936Z,25.45
2023-08-08T18:04:21.456Z,25.47
2023-08-08T18:06:50.842Z,25.50
2023-08-08T18:09:18.352Z,25.53
2023-08-08T18:11:44.874Z,25.53
2023-08-08T18:14:12.362Z,25.50
2023-08-08T18:16:46.188Z,25.50
2023-08-08T18:19:24.143Z,25.51
2023-08-08T18:21:50.591Z,25.44
2023-08-08T18:24:17.179Z,25.43
2023-08-08T18:26:43.713Z,25.41
2023-08-08T18:29:10.225Z,25.34
2023-08-08T18:31:36.744Z,25.29
2023-08-08T18:34:03.334Z,25.26
2023-08-08T18:36:29.978Z,25.22
2023-08-08T18:39:03.665Z,25.17
2023-08-08T18:41:30.312Z,25.06
2023-08-08T18:43:56.852Z,24.99
2023-08-08T18:46:23.440Z,24.90
2023-08-08T18:48:52.175Z,24.82
2023-08-08T18:51:18.810Z,24.84
2023-08-08T18:53:45.374Z,24.84
2023-08-08T18:56:11.868Z,24.84
2023-08-08T18:58:38.420Z,24.88
2023-08-08T19:01:04.870Z,24.90
2023-08-08T19:03:31.527Z,24.91
2023-08-08T19:05:58.235Z,24.95
2023-08-08T19:08:24.684Z,24.93
2023-08-08T19:10:51.191Z,24.91
2023-08-08T19:13:20.408Z,24.87
2023-08-08T19:15:46.960Z,24.78
2023-08-08T19:20:53.728Z,24.71
2023-08-08T19:23:20.990Z,24.74
2023-08-08T19:25:47.666Z,24.71
2023-08-08T19:28:14.147Z,24.61
2023-08-08T19:30:41.013Z,24.57
2023-08-08T19:33:07.582Z,24.52
2023-08-08T19:35:36.216Z,24.48
2023-08-08T19:38:02.964Z,24.43
2023-08-08T19:40:29.514Z,24.39
2023-08-08T19:42:56.035Z,24.35
2023-08-08T19:45:22.698Z,24.37
2023-08-08T19:47:49.307Z,24.37
2023-08-08T19:50:16.039Z,24.37
2023-08-08T19:52:42.540Z,24.36
2023-08-08T19:55:09.016Z,24.30
2023-08-08T19:57:38.307Z,24.23
2023-08-08T20:00:12.663Z,24.17
2023-08-08T20:02:39.294Z,24.15
2023-08-08T20:05:05.804Z,24.10
2023-08-08T20:07:32.308Z,24.10
2023-08-08T20:09:58.769Z,24.06
2023-08-08T20:12:28.171Z,24.06
2023-08-08T20:14:54.718Z,24.03
2023-08-08T20:17:21.253Z,24.01
2023-08-08T20:19:47.786Z,23.99
2023-08-08T20:25:04.690Z,24.01
2023-08-08T20:27:31.218Z,24.03
2023-08-08T20:29:57.666Z,24.07
2023-08-08T20:32:24.220Z,24.03
2023-08-08T20:34:50.770Z,24.02
2023-08-08T20:37:18.541Z,24.06
2023-08-08T20:39:45.059Z,24.01
2023-08-08T20:42:11.816Z,24.05
2023-08-08T20:44:47.214Z,23.98
2023-08-08T20:47:14.058Z,23.89
2023-08-08T20:49:40.613Z,23.88
2023-08-08T20:52:07.116Z,23.84
2023-08-08T20:54:34.885Z,23.88
2023-08-08T20:57:04.012Z,23.93
2023-08-08T20:59:30.756Z,23.95
2023-08-08T21:01:57.266Z,23.99
2023-08-08T21:04:23.740Z,23.95
2023-08-08T21:06:50.313Z,23.92
2023-08-08T21:09:16.949Z,23.84
2023-08-08T21:11:43.446Z,23.76
2023-08-08T21:14:11.615Z,23.74
2023-08-08T21:16:38.169Z,23.69
2023-08-08T21:19:04.838Z,23.64
2023-08-08T21:21:31.315Z,23.66
2023-08-08T21:23:59.047Z,23.64
2023-08-08T21:26:33.939Z,23.65
2023-08-08T21:29:04.900Z,23.61
2023-08-08T21:31:31.378Z,23.56
2023-08-08T21:33:57.904Z,23.50
2023-08-08T21:36:24.436Z,23.51
2023-08-08T21:38:50.913Z,23.49
2023-08-08T21:41:19.433Z,23.47
2023-08-08T21:43:45.998Z,23.45
2023-08-08T21:46:12.561Z,23.39
2023-08-08T21:51:21.384Z,23.26
2023-08-08T21:53:48.006Z,23.21
2023-08-08T21:56:14.585Z,23.18
2023-08-08T21:58:41.164Z,23.22
2023-08-08T22:01:08.108Z,23.24
2023-08-08T22:03:35.295Z,23.23
2023-08-08T22:06:01.805Z,23.21
2023-08-08T22:08:28.448Z,23.16
2023-08-08T22:10:55.035Z,23.15
2023-08-08T22:13:21.547Z,23.15
2023-08-08T22:15:48.746Z,23.07
2023-08-08T22:18:15.452Z,23.04
2023-08-08T22:20:43.107Z,22.98
2023-08-08T22:23:18.746Z,22.96
2023-08-08T22:25:47.246Z,23.00
2023-08-08T22:28:13.788Z,23.01
2023-08-08T22:30:40.423Z,23.03
2023-08-08T22:33:08.809Z,23.01
2023-08-08T22:35:35.283Z,23.04
2023-08-08T22:38:17.138Z,23.08
2023-08-08T22:40:45.597Z,23.13
2023-08-08T22:43:13.579Z,23.19
2023-08-08T22:45:40.123Z,23.22
2023-08-08T22:48:06.628Z,23.17
2023-08-08T22:50:33.200Z,23.18
2023-08-08T22:52:59.762Z,23.19
2023-08-08T22:55:26.263Z,23.18
2023-08-08T22:57:52.821Z,23.16
2023-08-08T23:00:22.468Z,23.10
2023-08-08T23:02:49.165Z,23.08
2023-08-08T23:05:15.791Z,23.03
2023-08-08T23:07:42.338Z,23.00
2023-08-08T23:10:08.925Z,22.94
2023-08-08T23:12:35.479Z,22.89
2023-08-08T23:15:01.942Z,22.83
2023-08-08T23:17:28.493Z,22.84
2023-08-08T23:19:58.090Z,22.85
2023-08-08T23:22:26.916Z,22.83
2023-08-08T23:24:53.505Z,22.74
2023-08-08T23:27:20.107Z,22.76
2023-08-08T23:29:46.795Z,22.77
2023-08-08T23:32:13.348Z,22.82
2023-08-08T23:34:39.872Z,22.83
2023-08-08T23:37:09.390Z,22.84
2023-08-08T23:39:40.830Z,22.83
2023-08-08T23:42:07.372Z,22.87
2023-08-08T23:44:33.915Z,22.91
2023-08-08T23:47:00.681Z,22.92
2023-08-08T23:49:27.388Z,22.96
2023-08-08T23:51:53.906Z,22.87
2023-08-08T23:54:20.443Z,22.75
2023-08-08T23:56:47.021Z,22.69
